EZY48ZW EGJJ-EGBB
Flight info
| Callsign | EZY48ZW |
|---|---|
| Flight time | 0h 50m |
| Altitude | 24000 |
| Route | BENIX G27 AKIKI UM189 EPATI UM184 KOTEM M184 HEMEL |
| Aircraft | A320/M-SDE3FGHIRWY/LB1 |
Departure
| Time | 2026-05-07 19:56 |
|---|---|
| Airport | Jersey Airport (EGJJ) |
Arrival
| Time | 2026-05-07 20:46 |
|---|---|
| Airport | Birmingham Airport (EGBB) |
| Time | Latitude | Longitude | Altitude | Speed | Heading |
|---|---|---|---|---|---|
| 2026-05-07 19:48 | 49.20562 | -2.19637 | 284 ft | 0 kts | 159° |
| 2026-05-07 19:51 | 49.20579 | -2.19647 | 286 ft | 4 kts | 159° |
| 2026-05-07 19:51 | 49.20599 | -2.19659 | 287 ft | 3 kts | 159° |
| 2026-05-07 19:51 | 49.20624 | -2.19671 | 287 ft | 4 kts | 175° |
| 2026-05-07 19:51 | 49.20647 | -2.19666 | 284 ft | 2 kts | 210° |
| 2026-05-07 19:52 | 49.20648 | -2.19665 | 284 ft | 0 kts | 210° |
| 2026-05-07 19:53 | 49.20639 | -2.19674 | 284 ft | 4 kts | 210° |
| 2026-05-07 19:53 | 49.20615 | -2.19748 | 284 ft | 14 kts | 261° |
| 2026-05-07 19:54 | 49.20599 | -2.19907 | 284 ft | 13 kts | 248° |
| 2026-05-07 19:54 | 49.20524 | -2.19936 | 287 ft | 10 kts | 200° |
| 2026-05-07 19:54 | 49.20528 | -2.20038 | 284 ft | 13 kts | 287° |
| 2026-05-07 19:54 | 49.20561 | -2.20201 | 284 ft | 19 kts | 287° |
| 2026-05-07 19:55 | 49.20601 | -2.20405 | 284 ft | 19 kts | 286° |
| 2026-05-07 19:55 | 49.20626 | -2.20595 | 284 ft | 17 kts | 275° |
| 2026-05-07 19:55 | 49.20683 | -2.20696 | 284 ft | 14 kts | 16° |
| 2026-05-07 19:55 | 49.20714 | -2.20550 | 283 ft | 20 kts | 82° |
| 2026-05-07 19:56 | 49.20739 | -2.20260 | 283 ft | 68 kts | 83° |
| 2026-05-07 19:56 | 49.20828 | -2.19175 | 288 ft | 134 kts | 83° |
| 2026-05-07 19:56 | 49.20952 | -2.17673 | 812 ft | 140 kts | 82° |
| 2026-05-07 19:56 | 49.21079 | -2.16207 | 1536 ft | 143 kts | 85° |
| 2026-05-07 19:57 | 49.21219 | -2.14609 | 1863 ft | 162 kts | 87° |
| 2026-05-07 19:57 | 49.21376 | -2.12792 | 2104 ft | 184 kts | 87° |
| 2026-05-07 19:57 | 49.21554 | -2.10715 | 2360 ft | 209 kts | 85° |
| 2026-05-07 19:57 | 49.21757 | -2.08371 | 2701 ft | 235 kts | 85° |
| 2026-05-07 19:58 | 49.22007 | -2.05779 | 3227 ft | 256 kts | 79° |
| 2026-05-07 19:58 | 49.22839 | -2.03303 | 4001 ft | 271 kts | 51° |
| 2026-05-07 19:58 | 49.24115 | -2.01160 | 4932 ft | 275 kts | 49° |
| 2026-05-07 19:58 | 49.25420 | -1.98987 | 5804 ft | 280 kts | 50° |
| 2026-05-07 19:59 | 49.26743 | -1.96770 | 6678 ft | 284 kts | 49° |
| 2026-05-07 19:59 | 49.28081 | -1.94514 | 7537 ft | 288 kts | 50° |
| 2026-05-07 19:59 | 49.29431 | -1.92229 | 8391 ft | 292 kts | 50° |
| 2026-05-07 19:59 | 49.30801 | -1.89908 | 9250 ft | 295 kts | 50° |
| 2026-05-07 20:00 | 49.32188 | -1.87553 | 10074 ft | 300 kts | 50° |
| 2026-05-07 20:00 | 49.33627 | -1.85102 | 10443 ft | 321 kts | 50° |
| 2026-05-07 20:00 | 49.35171 | -1.82469 | 10753 ft | 341 kts | 49° |
| 2026-05-07 20:00 | 49.36778 | -1.79728 | 11386 ft | 349 kts | 49° |
| 2026-05-07 20:01 | 49.38408 | -1.76942 | 12144 ft | 352 kts | 49° |
| 2026-05-07 20:01 | 49.40052 | -1.74133 | 12919 ft | 356 kts | 48° |
| 2026-05-07 20:01 | 49.41713 | -1.71292 | 13693 ft | 359 kts | 48° |
| 2026-05-07 20:01 | 49.43392 | -1.68425 | 14352 ft | 363 kts | 48° |
| 2026-05-07 20:02 | 49.45088 | -1.65522 | 15001 ft | 367 kts | 49° |
| 2026-05-07 20:02 | 49.46795 | -1.62592 | 15651 ft | 370 kts | 49° |
| 2026-05-07 20:02 | 49.48519 | -1.59622 | 16291 ft | 374 kts | 49° |
| 2026-05-07 20:02 | 49.50257 | -1.56623 | 16908 ft | 378 kts | 49° |
| 2026-05-07 20:03 | 49.52012 | -1.53587 | 17536 ft | 382 kts | 49° |
| 2026-05-07 20:03 | 49.53766 | -1.50553 | 18133 ft | 386 kts | 49° |
| 2026-05-07 20:03 | 49.55565 | -1.47457 | 18682 ft | 390 kts | 48° |
| 2026-05-07 20:03 | 49.57416 | -1.44370 | 19224 ft | 394 kts | 47° |
| 2026-05-07 20:04 | 49.59303 | -1.41287 | 19768 ft | 397 kts | 47° |
| 2026-05-07 20:04 | 49.61215 | -1.38189 | 20312 ft | 401 kts | 47° |
| 2026-05-07 20:04 | 49.63145 | -1.35060 | 20858 ft | 404 kts | 47° |
| 2026-05-07 20:04 | 49.65085 | -1.31902 | 21403 ft | 407 kts | 47° |
| 2026-05-07 20:05 | 49.67033 | -1.28704 | 21958 ft | 410 kts | 47° |
| 2026-05-07 20:05 | 49.68989 | -1.25476 | 22506 ft | 413 kts | 47° |
| 2026-05-07 20:05 | 49.70953 | -1.22216 | 23037 ft | 416 kts | 47° |
| 2026-05-07 20:05 | 49.72936 | -1.18914 | 23554 ft | 420 kts | 47° |
| 2026-05-07 20:06 | 49.74927 | -1.15599 | 23923 ft | 423 kts | 47° |
| 2026-05-07 20:06 | 49.77049 | -1.12455 | 24018 ft | 420 kts | 38° |
| 2026-05-07 20:06 | 49.79465 | -1.10025 | 24046 ft | 412 kts | 26° |
| 2026-05-07 20:06 | 49.82108 | -1.08354 | 24050 ft | 409 kts | 15° |
| 2026-05-07 20:07 | 49.84885 | -1.07464 | 24049 ft | 407 kts | 4° |
| 2026-05-07 20:07 | 49.87705 | -1.07084 | 24054 ft | 407 kts | 3° |
| 2026-05-07 20:07 | 49.90522 | -1.06704 | 24053 ft | 407 kts | 3° |
| 2026-05-07 20:07 | 49.93343 | -1.06315 | 24055 ft | 407 kts | 3° |
| 2026-05-07 20:08 | 49.96162 | -1.05921 | 24055 ft | 407 kts | 4° |
| 2026-05-07 20:08 | 49.98970 | -1.05524 | 24058 ft | 407 kts | 3° |
| 2026-05-07 20:08 | 50.01786 | -1.05125 | 24056 ft | 406 kts | 3° |
| 2026-05-07 20:08 | 50.04597 | -1.04731 | 24056 ft | 406 kts | 3° |
| 2026-05-07 20:09 | 50.07416 | -1.04341 | 24057 ft | 406 kts | 3° |
| 2026-05-07 20:09 | 50.10231 | -1.03960 | 24057 ft | 406 kts | 3° |
| 2026-05-07 20:09 | 50.13048 | -1.03579 | 24057 ft | 406 kts | 3° |
| 2026-05-07 20:10 | 50.18679 | -1.02794 | 24061 ft | 406 kts | 3° |
| 2026-05-07 20:10 | 50.21492 | -1.02397 | 24066 ft | 406 kts | 3° |
| 2026-05-07 20:10 | 50.24310 | -1.01998 | 24066 ft | 406 kts | 3° |
| 2026-05-07 20:10 | 50.27127 | -1.01601 | 24065 ft | 406 kts | 3° |
| 2026-05-07 20:11 | 50.29943 | -1.01206 | 24065 ft | 406 kts | 3° |
| 2026-05-07 20:11 | 50.32761 | -1.00811 | 24068 ft | 406 kts | 3° |
| 2026-05-07 20:11 | 50.35576 | -1.00413 | 24069 ft | 406 kts | 3° |
| 2026-05-07 20:11 | 50.38391 | -1.00018 | 24068 ft | 406 kts | 3° |
| 2026-05-07 20:12 | 50.41209 | -0.99626 | 24071 ft | 406 kts | 3° |
| 2026-05-07 20:12 | 50.44024 | -0.99236 | 24075 ft | 406 kts | 3° |
| 2026-05-07 20:12 | 50.46841 | -0.98840 | 24075 ft | 406 kts | 3° |
| 2026-05-07 20:12 | 50.49658 | -0.98437 | 24076 ft | 406 kts | 3° |
| 2026-05-07 20:13 | 50.52473 | -0.98036 | 24076 ft | 406 kts | 3° |
| 2026-05-07 20:13 | 50.55289 | -0.97636 | 24075 ft | 406 kts | 3° |
| 2026-05-07 20:13 | 50.58104 | -0.97236 | 24075 ft | 406 kts | 3° |
| 2026-05-07 20:13 | 50.60922 | -0.96834 | 24078 ft | 406 kts | 3° |
| 2026-05-07 20:14 | 50.63739 | -0.96434 | 24077 ft | 406 kts | 3° |
| 2026-05-07 20:14 | 50.66515 | -0.96041 | 24084 ft | 406 kts | 4° |
| 2026-05-07 20:14 | 50.69330 | -0.95643 | 24084 ft | 406 kts | 4° |
| 2026-05-07 20:14 | 50.72146 | -0.95241 | 24082 ft | 406 kts | 4° |
| 2026-05-07 20:15 | 50.74958 | -0.94838 | 24080 ft | 406 kts | 4° |
| 2026-05-07 20:15 | 50.77770 | -0.94435 | 24080 ft | 406 kts | 4° |
| 2026-05-07 20:15 | 50.80584 | -0.94023 | 24079 ft | 406 kts | 5° |
| 2026-05-07 20:15 | 50.83357 | -0.93142 | 24076 ft | 408 kts | 15° |
| 2026-05-07 20:16 | 50.86057 | -0.91762 | 24082 ft | 408 kts | 17° |
| 2026-05-07 20:16 | 50.88751 | -0.90362 | 24090 ft | 408 kts | 17° |
| 2026-05-07 20:16 | 50.91445 | -0.88962 | 24090 ft | 407 kts | 17° |
| 2026-05-07 20:16 | 50.94136 | -0.87565 | 24090 ft | 407 kts | 17° |
| 2026-05-07 20:17 | 50.96830 | -0.86169 | 24091 ft | 407 kts | 17° |
| 2026-05-07 20:17 | 50.99523 | -0.84779 | 24092 ft | 407 kts | 17° |
| 2026-05-07 20:17 | 51.02216 | -0.83388 | 24093 ft | 407 kts | 17° |
| 2026-05-07 20:17 | 51.04908 | -0.81989 | 24093 ft | 407 kts | 17° |
| 2026-05-07 20:18 | 51.07596 | -0.80590 | 24089 ft | 407 kts | 17° |
| 2026-05-07 20:18 | 51.10286 | -0.79188 | 24091 ft | 407 kts | 17° |
| 2026-05-07 20:18 | 51.12972 | -0.77785 | 24093 ft | 407 kts | 17° |
| 2026-05-07 20:18 | 51.15661 | -0.76377 | 24094 ft | 406 kts | 17° |
| 2026-05-07 20:19 | 51.18346 | -0.74971 | 24095 ft | 406 kts | 17° |
| 2026-05-07 20:19 | 51.21036 | -0.73566 | 24096 ft | 406 kts | 17° |
| 2026-05-07 20:19 | 51.23723 | -0.72162 | 24095 ft | 406 kts | 17° |
| 2026-05-07 20:19 | 51.26407 | -0.70757 | 24095 ft | 406 kts | 17° |
| 2026-05-07 20:20 | 51.29093 | -0.69343 | 24094 ft | 406 kts | 17° |
| 2026-05-07 20:20 | 51.31778 | -0.67925 | 24093 ft | 406 kts | 17° |
| 2026-05-07 20:20 | 51.34460 | -0.66512 | 24096 ft | 406 kts | 17° |
| 2026-05-07 20:20 | 51.37145 | -0.65096 | 24096 ft | 406 kts | 17° |
| 2026-05-07 20:21 | 51.39828 | -0.63681 | 24096 ft | 406 kts | 17° |
| 2026-05-07 20:21 | 51.42513 | -0.62261 | 24095 ft | 406 kts | 17° |
| 2026-05-07 20:21 | 51.45191 | -0.60842 | 24095 ft | 406 kts | 17° |
| 2026-05-07 20:21 | 51.47875 | -0.59420 | 24094 ft | 406 kts | 17° |
| 2026-05-07 20:22 | 51.50541 | -0.58005 | 23923 ft | 399 kts | 17° |
| 2026-05-07 20:22 | 51.53150 | -0.56619 | 23689 ft | 391 kts | 17° |
| 2026-05-07 20:22 | 51.55719 | -0.55252 | 23415 ft | 388 kts | 17° |
| 2026-05-07 20:22 | 51.58275 | -0.53890 | 23143 ft | 386 kts | 17° |
| 2026-05-07 20:23 | 51.60814 | -0.52532 | 22867 ft | 384 kts | 17° |
| 2026-05-07 20:23 | 51.63344 | -0.51178 | 22592 ft | 382 kts | 17° |
| 2026-05-07 20:23 | 51.65864 | -0.49830 | 22319 ft | 381 kts | 17° |
| 2026-05-07 20:23 | 51.68371 | -0.48486 | 22073 ft | 379 kts | 17° |
| 2026-05-07 20:24 | 51.70866 | -0.47144 | 22054 ft | 378 kts | 17° |
| 2026-05-07 20:24 | 51.73365 | -0.45800 | 22057 ft | 379 kts | 17° |
| 2026-05-07 20:24 | 51.75873 | -0.44488 | 22057 ft | 378 kts | 13° |
| 2026-05-07 20:24 | 51.78458 | -0.43828 | 22084 ft | 376 kts | 0° |
| 2026-05-07 20:25 | 51.81052 | -0.44073 | 22093 ft | 373 kts | 347° |
| 2026-05-07 20:25 | 51.83542 | -0.45154 | 21879 ft | 370 kts | 337° |
| 2026-05-07 20:25 | 51.85848 | -0.47025 | 21166 ft | 371 kts | 325° |
| 2026-05-07 20:25 | 51.88015 | -0.49192 | 20954 ft | 363 kts | 326° |
| 2026-05-07 20:26 | 51.90164 | -0.51303 | 20626 ft | 360 kts | 326° |
| 2026-05-07 20:26 | 51.92302 | -0.53385 | 20296 ft | 358 kts | 326° |
| 2026-05-07 20:26 | 51.94429 | -0.55450 | 19972 ft | 356 kts | 327° |
| 2026-05-07 20:26 | 51.96550 | -0.57506 | 19646 ft | 354 kts | 327° |
| 2026-05-07 20:27 | 51.98659 | -0.59556 | 19319 ft | 353 kts | 327° |
| 2026-05-07 20:27 | 52.00758 | -0.61605 | 18996 ft | 352 kts | 326° |
| 2026-05-07 20:27 | 52.02848 | -0.63653 | 18676 ft | 350 kts | 326° |
| 2026-05-07 20:27 | 52.04927 | -0.65692 | 18357 ft | 349 kts | 327° |
| 2026-05-07 20:28 | 52.07001 | -0.67728 | 17999 ft | 347 kts | 326° |
| 2026-05-07 20:28 | 52.09064 | -0.69756 | 17686 ft | 346 kts | 326° |
| 2026-05-07 20:28 | 52.11120 | -0.71779 | 17362 ft | 345 kts | 326° |
| 2026-05-07 20:28 | 52.13169 | -0.73798 | 17064 ft | 344 kts | 327° |
| 2026-05-07 20:29 | 52.15210 | -0.75811 | 16760 ft | 342 kts | 327° |
| 2026-05-07 20:29 | 52.17242 | -0.77819 | 16441 ft | 341 kts | 326° |
| 2026-05-07 20:29 | 52.19266 | -0.79822 | 16129 ft | 340 kts | 327° |
| 2026-05-07 20:29 | 52.21283 | -0.81819 | 15819 ft | 338 kts | 326° |
| 2026-05-07 20:30 | 52.23108 | -0.84190 | 15513 ft | 334 kts | 311° |
| 2026-05-07 20:30 | 52.24513 | -0.87160 | 15208 ft | 329 kts | 298° |
| 2026-05-07 20:30 | 52.25442 | -0.90545 | 14925 ft | 325 kts | 284° |
| 2026-05-07 20:30 | 52.25963 | -0.94117 | 14644 ft | 324 kts | 280° |
| 2026-05-07 20:31 | 52.26442 | -0.97653 | 14348 ft | 323 kts | 280° |
| 2026-05-07 20:31 | 52.26927 | -1.01218 | 14061 ft | 320 kts | 280° |
| 2026-05-07 20:31 | 52.27411 | -1.04751 | 13755 ft | 318 kts | 280° |
| 2026-05-07 20:31 | 52.27893 | -1.08260 | 13454 ft | 316 kts | 281° |
| 2026-05-07 20:32 | 52.28374 | -1.11752 | 13174 ft | 314 kts | 280° |
| 2026-05-07 20:32 | 52.28849 | -1.15231 | 12895 ft | 313 kts | 280° |
| 2026-05-07 20:32 | 52.29319 | -1.18686 | 12615 ft | 311 kts | 280° |
| 2026-05-07 20:32 | 52.29784 | -1.22120 | 12331 ft | 309 kts | 280° |
| 2026-05-07 20:33 | 52.30244 | -1.25538 | 12041 ft | 307 kts | 280° |
| 2026-05-07 20:33 | 52.30702 | -1.28940 | 11777 ft | 305 kts | 281° |
| 2026-05-07 20:33 | 52.31151 | -1.32265 | 11627 ft | 294 kts | 281° |
| 2026-05-07 20:33 | 52.31586 | -1.35496 | 11374 ft | 288 kts | 281° |
| 2026-05-07 20:34 | 52.32010 | -1.38670 | 11234 ft | 285 kts | 281° |
| 2026-05-07 20:34 | 52.32429 | -1.41831 | 10998 ft | 284 kts | 281° |
| 2026-05-07 20:34 | 52.32845 | -1.44978 | 10758 ft | 282 kts | 281° |
| 2026-05-07 20:34 | 52.33258 | -1.48099 | 10505 ft | 281 kts | 281° |
| 2026-05-07 20:35 | 52.33674 | -1.51220 | 10256 ft | 281 kts | 281° |
| 2026-05-07 20:35 | 52.34088 | -1.54337 | 9989 ft | 280 kts | 280° |
| 2026-05-07 20:35 | 52.34496 | -1.57443 | 9727 ft | 279 kts | 280° |
| 2026-05-07 20:35 | 52.34902 | -1.60540 | 9477 ft | 278 kts | 280° |
| 2026-05-07 20:36 | 52.35307 | -1.63627 | 9234 ft | 277 kts | 280° |
| 2026-05-07 20:36 | 52.35611 | -1.66731 | 8996 ft | 275 kts | 271° |
| 2026-05-07 20:36 | 52.35538 | -1.69839 | 8894 ft | 274 kts | 265° |
| 2026-05-07 20:36 | 52.35417 | -1.72952 | 8789 ft | 274 kts | 265° |
| 2026-05-07 20:37 | 52.35303 | -1.76063 | 8676 ft | 274 kts | 265° |
| 2026-05-07 20:37 | 52.35472 | -1.79147 | 8507 ft | 275 kts | 287° |
| 2026-05-07 20:37 | 52.36334 | -1.81946 | 8169 ft | 278 kts | 299° |
| 2026-05-07 20:37 | 52.37357 | -1.84643 | 7668 ft | 279 kts | 300° |
| 2026-05-07 20:38 | 52.38403 | -1.87324 | 7182 ft | 281 kts | 304° |
| 2026-05-07 20:38 | 52.39829 | -1.89507 | 6702 ft | 284 kts | 326° |
| 2026-05-07 20:38 | 52.41553 | -1.91112 | 6216 ft | 286 kts | 330° |
| 2026-05-07 20:38 | 52.43306 | -1.92648 | 5718 ft | 286 kts | 330° |
| 2026-05-07 20:39 | 52.45066 | -1.94184 | 5257 ft | 286 kts | 330° |
| 2026-05-07 20:39 | 52.46803 | -1.95702 | 4925 ft | 280 kts | 330° |
| 2026-05-07 20:39 | 52.48507 | -1.97194 | 4585 ft | 275 kts | 330° |
| 2026-05-07 20:39 | 52.50182 | -1.98661 | 4246 ft | 270 kts | 330° |
| 2026-05-07 20:40 | 52.50958 | -1.99351 | 4095 ft | 268 kts | 328° |
| 2026-05-07 20:40 | 52.52597 | -2.00747 | 3759 ft | 264 kts | 335° |
| 2026-05-07 20:40 | 52.54376 | -2.01208 | 3481 ft | 259 kts | 6° |
| 2026-05-07 20:40 | 52.56092 | -2.00454 | 3226 ft | 253 kts | 19° |
| 2026-05-07 20:41 | 52.57716 | -1.99475 | 3038 ft | 243 kts | 21° |
| 2026-05-07 20:41 | 52.59157 | -1.98250 | 3018 ft | 227 kts | 45° |
| 2026-05-07 20:41 | 52.59981 | -1.96202 | 3023 ft | 208 kts | 76° |
| 2026-05-07 20:41 | 52.60096 | -1.93921 | 3014 ft | 197 kts | 104° |
| 2026-05-07 20:42 | 52.59596 | -1.91883 | 3026 ft | 191 kts | 126° |
| 2026-05-07 20:42 | 52.58817 | -1.90130 | 3022 ft | 189 kts | 137° |
| 2026-05-07 20:42 | 52.58152 | -1.89170 | 3020 ft | 188 kts | 144° |
| 2026-05-07 20:42 | 52.57126 | -1.87938 | 2900 ft | 179 kts | 147° |
| 2026-05-07 20:43 | 52.56127 | -1.86801 | 2671 ft | 169 kts | 147° |
| 2026-05-07 20:43 | 52.55203 | -1.85760 | 2459 ft | 154 kts | 148° |
| 2026-05-07 20:43 | 52.54356 | -1.84811 | 2275 ft | 140 kts | 148° |
| 2026-05-07 20:43 | 52.53576 | -1.83939 | 2090 ft | 135 kts | 148° |
| 2026-05-07 20:44 | 52.52808 | -1.83080 | 1908 ft | 133 kts | 149° |
| 2026-05-07 20:44 | 52.52046 | -1.82230 | 1727 ft | 132 kts | 148° |
| 2026-05-07 20:44 | 52.51287 | -1.81382 | 1544 ft | 132 kts | 148° |
| 2026-05-07 20:44 | 52.50524 | -1.80531 | 1363 ft | 134 kts | 148° |
| 2026-05-07 20:45 | 52.49752 | -1.79670 | 1166 ft | 134 kts | 147° |
| 2026-05-07 20:45 | 52.48980 | -1.78808 | 968 ft | 134 kts | 147° |
| 2026-05-07 20:45 | 52.48206 | -1.77945 | 768 ft | 134 kts | 146° |
| 2026-05-07 20:45 | 52.47432 | -1.77081 | 602 ft | 135 kts | 147° |
| 2026-05-07 20:46 | 52.46653 | -1.76211 | 412 ft | 135 kts | 147° |
| 2026-05-07 20:46 | 52.45893 | -1.75362 | 320 ft | 123 kts | 146° |
| 2026-05-07 20:46 | 52.45327 | -1.74734 | 325 ft | 73 kts | 146° |
| 2026-05-07 20:46 | 52.45044 | -1.74424 | 330 ft | 30 kts | 145° |
| 2026-05-07 20:47 | 52.44946 | -1.74288 | 326 ft | 14 kts | 108° |
| 2026-05-07 20:47 | 52.44971 | -1.74085 | 326 ft | 23 kts | 76° |
| 2026-05-07 20:47 | 52.45020 | -1.73869 | 322 ft | 18 kts | 55° |
| 2026-05-07 20:47 | 52.45106 | -1.73781 | 322 ft | 16 kts | 329° |
| 2026-05-07 20:48 | 52.45231 | -1.73920 | 323 ft | 25 kts | 326° |
| 2026-05-07 20:48 | 52.45325 | -1.73946 | 323 ft | 13 kts | 53° |
| 2026-05-07 20:48 | 52.45389 | -1.73790 | 323 ft | 13 kts | 56° |
| 2026-05-07 20:48 | 52.45371 | -1.73727 | 323 ft | 6 kts | 148° |
| 2026-05-07 20:49 | 52.45344 | -1.73696 | 323 ft | 0 kts | 145° |